Time;durP1;ratioP1;P1;durP2;ratioP2;P2;SDS_P1;SDS_P2;PMS_P1;PMS_P2;Temp;Humidity;BMP_temperature;BMP_pressure;BME280_temperature;BME280_humidity;BME280_pressure;Samples;Min_cycle;Max_cycle;Signal;HPM_P1;HPM_P2
2022/07/04 00:02:14;;;;;;;3.80;2.03;;;;;;;20.83;57.07;100434.31;5023396;28;20040;-69
2022/07/04 00:04:39;;;;;;;2.97;1.90;;;;;;;20.74;56.70;100434.75;5021362;28;20543;-69
2022/07/04 00:07:04;;;;;;;3.17;1.73;;;;;;;20.65;57.39;100436.09;5023897;28;20507;-70
2022/07/04 00:09:30;;;;;;;5.38;2.40;;;;;;;20.60;56.99;100448.00;5024743;28;20592;-70
2022/07/04 00:11:55;;;;;;;3.67;2.25;;;;;;;20.50;58.05;100445.72;5017843;28;20042;-70
2022/07/04 00:14:20;;;;;;;3.55;1.98;;;;;;;20.47;57.87;100448.53;5023299;28;20037;-70
2022/07/04 00:16:46;;;;;;;3.55;2.20;;;;;;;20.45;57.81;100450.44;5020486;28;20038;-70
2022/07/04 00:19:11;;;;;;;5.40;2.42;;;;;;;20.38;59.16;100453.47;5023466;28;20029;-70
2022/07/04 00:21:36;;;;;;;3.25;2.08;;;;;;;20.25;59.72;100463.91;5025300;28;20055;-70
2022/07/04 00:24:02;;;;;;;3.85;2.00;;;;;;;20.18;58.48;100452.63;5024027;28;20096;-69
2022/07/04 00:26:27;;;;;;;2.88;1.92;;;;;;;20.23;58.13;100455.09;5026674;28;20389;-70
2022/07/04 00:28:53;;;;;;;2.90;2.15;;;;;;;20.27;59.15;100468.25;5023808;28;20026;-70
2022/07/04 00:31:19;;;;;;;3.83;2.13;;;;;;;20.38;57.49;100467.72;5024876;28;20041;-70
2022/07/04 00:33:44;;;;;;;4.20;1.85;;;;;;;20.45;56.63;100468.31;5026750;28;20045;-70
2022/07/04 00:36:09;;;;;;;4.57;1.63;;;;;;;20.50;56.64;100464.47;5024181;28;20029;-70
2022/07/04 00:38:35;;;;;;;3.40;1.85;;;;;;;20.53;55.97;100472.38;5023148;28;20116;-70
2022/07/04 00:41:00;;;;;;;3.33;1.88;;;;;;;20.62;55.63;100479.16;5025452;28;20073;-70
2022/07/04 00:43:27;;;;;;;2.60;1.63;;;;;;;20.72;54.93;100472.41;5023257;28;20034;-70
2022/07/04 00:45:53;;;;;;;4.25;1.80;;;;;;;20.78;54.54;100468.53;5022032;28;20041;-70
2022/07/04 00:48:19;;;;;;;2.63;1.48;;;;;;;20.87;53.92;100476.09;5026400;28;20041;-70
2022/07/04 00:50:46;;;;;;;3.40;1.70;;;;;;;20.93;53.47;100473.13;5020491;28;20044;-70
2022/07/04 00:53:13;;;;;;;4.28;1.52;;;;;;;20.95;53.74;100473.03;5021251;28;20063;-70
2022/07/04 00:55:39;;;;;;;2.78;1.50;;;;;;;20.97;53.37;100463.97;5027169;28;20036;-70
2022/07/04 00:58:06;;;;;;;2.47;1.58;;;;;;;20.94;53.21;100469.50;5023776;28;20384;-70
2022/07/04 01:00:31;;;;;;;3.75;1.40;;;;;;;20.95;52.94;100478.41;5019769;28;20461;-70
2022/07/04 01:02:56;;;;;;;5.32;1.35;;;;;;;20.94;53.90;100474.00;5022322;28;20123;-70
2022/07/04 01:05:21;;;;;;;2.08;1.30;;;;;;;20.95;52.93;100492.69;5020556;28;20073;-69
2022/07/04 01:07:47;;;;;;;4.40;1.42;;;;;;;20.94;53.44;100490.97;5021453;28;20072;-70
2022/07/04 01:10:12;;;;;;;3.92;1.27;;;;;;;20.94;52.80;100496.31;5021777;28;20037;-70
2022/07/04 01:12:38;;;;;;;2.10;1.40;;;;;;;20.93;53.26;100497.28;5019100;28;20042;-69
2022/07/04 01:15:08;;;;;;;4.15;1.23;;;;;;;20.88;53.22;100496.66;5019818;28;20034;-70
2022/07/04 01:17:34;;;;;;;1.85;1.25;;;;;;;20.83;53.21;100501.38;5020062;28;20041;-69
2022/07/04 01:19:59;;;;;;;3.67;1.15;;;;;;;20.79;53.64;100503.31;5021776;28;20042;-70
2022/07/04 01:22:25;;;;;;;2.60;1.20;;;;;;;20.81;53.17;100508.59;5020471;28;20038;-70
2022/07/04 01:24:50;;;;;;;4.07;1.50;;;;;;;20.79;52.90;100513.19;5020701;28;20030;-70
2022/07/04 01:27:16;;;;;;;1.60;0.90;;;;;;;20.81;53.07;100513.97;5021591;28;20380;-70
2022/07/04 01:29:42;;;;;;;2.63;1.10;;;;;;;20.77;53.17;100517.75;5019436;28;20030;-70
2022/07/04 01:32:09;;;;;;;2.03;1.00;;;;;;;20.78;52.82;100527.53;5023875;28;20127;-70
2022/07/04 01:34:34;;;;;;;3.47;1.38;;;;;;;20.76;53.02;100524.91;5025780;28;20032;-70
2022/07/04 01:37:00;;;;;;;4.88;1.00;;;;;;;20.75;52.85;100527.66;5020841;28;20038;-69
2022/07/04 01:39:27;;;;;;;1.77;0.90;;;;;;;20.74;52.77;100523.25;5020327;28;20038;-70
2022/07/04 01:41:52;;;;;;;3.33;1.20;;;;;;;20.73;52.83;100529.56;5026678;28;20396;-70
2022/07/04 01:44:18;;;;;;;4.32;0.98;;;;;;;20.70;53.33;100548.50;5025134;28;20041;-69
2022/07/04 01:46:43;;;;;;;4.88;1.20;;;;;;;20.61;53.20;100554.28;5019861;28;20030;-70
2022/07/04 01:49:08;;;;;;;2.10;1.00;;;;;;;20.56;53.52;100563.41;5021546;28;20580;-69
2022/07/04 01:51:34;;;;;;;4.90;1.17;;;;;;;20.49;54.06;100569.13;5020418;28;20531;-70
2022/07/04 01:53:59;;;;;;;1.83;0.93;;;;;;;20.45;54.63;100570.19;5020086;28;20034;-70
2022/07/04 01:56:25;;;;;;;2.78;1.15;;;;;;;20.39;54.85;100568.66;5022147;28;20041;-70
2022/07/04 01:58:50;;;;;;;2.58;1.13;;;;;;;20.34;55.01;100573.38;5019010;28;20120;-70
2022/07/04 02:01:30;;;;;;;2.90;1.17;;;;;;;20.30;54.55;100574.44;5004130;28;20518;-69
2022/07/04 02:04:01;;;;;;;1.73;0.98;;;;;;;20.26;55.46;100562.13;5022185;28;20045;-70
2022/07/04 02:06:27;;;;;;;2.90;1.10;;;;;;;20.22;55.48;100569.44;5019436;28;20041;-70
2022/07/04 02:14:21;;;;;;;4.78;1.20;;;;;;;20.17;55.73;100582.16;5022492;28;20049;-70
2022/07/04 02:16:47;;;;;;;3.38;1.05;;;;;;;20.18;56.24;100588.41;5019260;28;20042;-71
2022/07/04 02:19:12;;;;;;;3.05;1.50;;;;;;;20.19;56.43;100587.47;5021585;28;20041;-70
2022/07/04 02:21:37;;;;;;;2.40;1.05;;;;;;;20.18;57.30;100596.44;5019721;28;20139;-69
2022/07/04 02:24:03;;;;;;;4.70;1.42;;;;;;;20.23;57.75;100607.84;5020279;28;20060;-70
2022/07/04 02:26:28;;;;;;;3.67;1.50;;;;;;;20.21;57.76;100601.66;5021481;28;20045;-70
2022/07/04 02:28:54;;;;;;;3.83;1.27;;;;;;;20.18;57.83;100617.91;5019080;28;20042;-70
2022/07/04 02:31:19;;;;;;;2.97;1.40;;;;;;;20.17;57.76;100619.69;5021630;28;20124;-69
2022/07/04 02:33:44;;;;;;;4.68;1.40;;;;;;;20.15;57.61;100616.22;5019388;28;20200;-70
2022/07/04 02:36:10;;;;;;;4.53;1.55;;;;;;;20.09;57.01;100613.78;5021240;28;20073;-70
2022/07/04 02:38:35;;;;;;;3.33;1.33;;;;;;;20.05;57.44;100618.44;5021795;28;20500;-70
2022/07/04 02:41:00;;;;;;;5.07;1.30;;;;;;;20.00;57.07;100623.13;5024549;28;20040;-70
2022/07/04 02:43:26;;;;;;;2.35;1.42;;;;;;;19.95;57.49;100621.56;5021973;28;20064;-70
2022/07/04 02:45:51;;;;;;;3.22;1.50;;;;;;;19.86;57.48;100614.81;5022343;28;20053;-70
2022/07/04 02:48:17;;;;;;;2.67;1.35;;;;;;;19.74;58.16;100629.59;5022292;28;20050;-70
2022/07/04 02:50:42;;;;;;;2.70;1.30;;;;;;;19.66;57.90;100632.59;5024918;28;20073;-69
2022/07/04 02:53:07;;;;;;;3.78;1.70;;;;;;;19.57;58.39;100624.94;5022544;28;20033;-70
2022/07/04 02:55:33;;;;;;;4.72;1.88;;;;;;;19.45;59.05;100628.09;5023608;28;20052;-70
2022/07/04 02:57:58;;;;;;;2.13;1.20;;;;;;;19.39;58.48;100631.06;5024392;28;20041;-70
2022/07/04 03:00:24;;;;;;;3.17;1.55;;;;;;;19.30;60.53;100634.94;5022400;28;20378;-70
2022/07/04 03:02:49;;;;;;;2.20;1.60;;;;;;;19.19;60.54;100637.19;5023509;28;20230;-70
2022/07/04 03:05:14;;;;;;;3.55;1.52;;;;;;;19.14;60.70;100639.19;5023941;28;20400;-70
2022/07/04 03:07:40;;;;;;;3.22;1.60;;;;;;;19.11;60.22;100642.00;5028568;28;20033;-70
2022/07/04 03:10:06;;;;;;;5.05;2.40;;;;;;;19.08;60.55;100644.78;5025768;28;20056;-69
2022/07/04 03:12:32;;;;;;;4.68;1.70;;;;;;;19.05;60.86;100646.66;5021164;28;20172;-70
2022/07/04 03:14:59;;;;;;;4.13;1.48;;;;;;;19.04;62.07;100654.72;5024826;28;20505;-70
2022/07/04 03:17:25;;;;;;;2.85;1.30;;;;;;;19.01;61.90;100654.84;5025099;28;20033;-70
2022/07/04 03:19:50;;;;;;;3.60;1.58;;;;;;;18.95;61.85;100671.13;5021969;28;20072;-69
2022/07/04 03:22:16;;;;;;;4.70;1.60;;;;;;;18.88;63.62;100669.63;5022973;28;20076;-69
2022/07/04 03:24:41;;;;;;;2.13;1.40;;;;;;;18.85;63.47;100669.75;5023508;28;20030;-70
2022/07/04 03:27:06;;;;;;;3.05;1.60;;;;;;;18.80;63.67;100668.09;5022623;28;20092;-69
2022/07/04 03:29:32;;;;;;;4.60;1.50;;;;;;;18.77;63.58;100675.38;5024091;28;20040;-69
2022/07/04 03:31:57;;;;;;;4.97;1.80;;;;;;;18.80;63.90;100678.81;5020907;28;20149;-70
2022/07/04 03:34:22;;;;;;;3.22;1.77;;;;;;;18.80;64.00;100692.16;5019950;28;20112;-70
2022/07/04 03:36:48;;;;;;;3.60;1.25;;;;;;;18.87;63.58;100699.97;5027224;28;20048;-69
2022/07/04 03:39:13;;;;;;;3.88;1.85;;;;;;;18.89;63.31;100709.69;5025004;28;20033;-70
2022/07/04 03:41:38;;;;;;;4.15;1.88;;;;;;;18.82;64.04;100709.03;5024699;28;20033;-70
2022/07/04 03:44:04;;;;;;;2.47;1.42;;;;;;;18.86;64.64;100719.63;5029004;28;20175;-69
2022/07/04 03:46:29;;;;;;;2.17;1.30;;;;;;;18.78;64.29;100715.41;5022331;28;20069;-70
2022/07/04 03:48:55;;;;;;;3.03;1.05;;;;;;;18.80;64.33;100723.38;5005322;28;20381;-70
2022/07/04 03:51:22;;;;;;;2.72;1.20;;;;;;;18.79;64.01;100725.19;5027311;28;20037;-70
2022/07/04 03:53:48;;;;;;;4.28;1.00;;;;;;;18.80;63.93;100724.25;5022035;28;20180;-69
2022/07/04 03:56:13;;;;;;;3.55;1.17;;;;;;;18.76;64.13;100719.97;5022624;28;20120;-70
2022/07/04 03:58:39;;;;;;;4.68;1.30;;;;;;;18.79;64.11;100719.84;5027684;28;20034;-70
2022/07/04 04:01:05;;;;;;;2.85;1.42;;;;;;;18.82;63.77;100725.09;5030702;28;20041;-69
2022/07/04 04:06:14;;;;;;;3.13;1.20;;;;;;;18.77;64.02;100740.41;5020891;28;20059;-70
2022/07/04 04:08:39;;;;;;;3.88;1.17;;;;;;;18.72;64.45;100734.34;5020580;28;20507;-70
2022/07/04 04:11:04;;;;;;;6.65;1.83;;;;;;;18.77;64.46;100736.88;5025003;28;20495;-69
2022/07/04 04:13:30;;;;;;;2.50;1.38;;;;;;;18.74;64.98;100740.50;5026579;28;20061;-71
2022/07/04 04:15:55;;;;;;;4.25;1.40;;;;;;;18.75;64.78;100749.44;5017385;28;20049;-70
2022/07/04 04:18:20;;;;;;;3.58;1.20;;;;;;;18.76;65.00;100740.50;5020447;28;20037;-69
2022/07/04 04:20:46;;;;;;;2.97;1.52;;;;;;;18.79;65.14;100751.94;5027075;28;20048;-69
2022/07/04 04:23:11;;;;;;;3.25;1.50;;;;;;;18.84;65.22;100754.44;5028029;28;20064;-70
2022/07/04 04:25:36;;;;;;;3.88;1.23;;;;;;;18.89;65.32;100760.50;5024019;28;20049;-69
2022/07/04 04:28:02;;;;;;;3.17;1.30;;;;;;;18.87;65.31;100753.47;5020462;28;20042;-69
2022/07/04 04:30:27;;;;;;;3.88;1.73;;;;;;;18.87;65.78;100758.81;5027508;28;20038;-70
2022/07/04 04:32:53;;;;;;;3.25;1.67;;;;;;;18.92;65.25;100756.84;5027685;28;20037;-69
2022/07/04 04:35:19;;;;;;;4.43;1.70;;;;;;;18.99;65.37;100763.69;5027307;28;20030;-69
2022/07/04 04:37:44;;;;;;;5.75;1.60;;;;;;;19.00;65.37;100760.97;5027511;28;20439;-70
2022/07/04 04:40:10;;;;;;;3.05;1.38;;;;;;;19.02;65.30;100763.56;5024827;28;20050;-70
2022/07/04 04:42:37;;;;;;;7.03;1.92;;;;;;;19.11;65.36;100757.88;5024290;28;20125;-69
2022/07/04 04:45:04;;;;;;;3.83;1.77;;;;;;;19.15;65.31;100780.94;5022151;28;20052;-69
2022/07/04 04:47:29;;;;;;;5.28;1.73;;;;;;;19.07;65.47;100769.63;5026607;28;20037;-70
2022/07/04 04:49:55;;;;;;;3.75;1.63;;;;;;;19.09;65.50;100781.13;5027009;28;20029;-69
2022/07/04 04:52:20;;;;;;;2.83;1.67;;;;;;;19.10;65.65;100777.56;5024493;28;20040;-70
2022/07/04 04:54:46;;;;;;;2.35;1.45;;;;;;;19.05;66.14;100784.88;5027507;28;20029;-70
2022/07/04 04:57:11;;;;;;;3.58;1.67;;;;;;;19.10;66.25;100777.56;5025068;28;20029;-69
2022/07/04 04:59:36;;;;;;;3.03;1.63;;;;;;;19.04;66.12;100780.44;5025662;28;20419;-69
2022/07/04 05:02:02;;;;;;;4.88;1.88;;;;;;;19.13;66.11;100777.44;5027774;28;20503;-69
2022/07/04 05:04:28;;;;;;;2.65;1.40;;;;;;;19.15;65.83;100769.34;5011513;28;20484;-70
2022/07/04 05:06:53;;;;;;;2.20;1.27;;;;;;;19.21;66.49;100782.50;5022953;28;20041;-69
2022/07/04 05:09:19;;;;;;;4.07;1.65;;;;;;;19.31;66.58;100773.19;5018667;28;20037;-69
2022/07/04 05:11:45;;;;;;;3.58;1.63;;;;;;;19.38;65.86;100776.47;5024780;28;20049;-70
2022/07/04 05:14:10;;;;;;;4.97;1.45;;;;;;;19.32;66.59;100779.41;5021889;28;20033;-69
2022/07/04 05:16:35;;;;;;;2.63;1.52;;;;;;;19.36;66.39;100767.63;5019728;28;20045;-70
2022/07/04 05:19:01;;;;;;;2.83;1.60;;;;;;;19.44;66.72;100770.88;5019838;28;20033;-69
2022/07/04 05:21:28;;;;;;;5.68;1.92;;;;;;;19.55;66.61;100778.53;5020042;28;20029;-70
2022/07/04 05:23:54;;;;;;;3.67;1.88;;;;;;;19.49;66.69;100775.16;5019753;28;20044;-70
2022/07/04 05:26:19;;;;;;;3.88;1.30;;;;;;;19.58;66.37;100779.25;5025080;28;20038;-70
2022/07/04 05:28:44;;;;;;;3.65;1.48;;;;;;;19.62;66.67;100785.34;5022291;28;20060;-70
2022/07/04 05:31:10;;;;;;;3.80;1.50;;;;;;;19.67;66.11;100784.25;5020046;28;20052;-69
2022/07/04 05:33:35;;;;;;;6.60;1.77;;;;;;;19.72;66.44;100791.25;5020713;28;20034;-69
2022/07/04 05:36:00;;;;;;;2.78;1.30;;;;;;;19.69;66.65;100781.53;5019979;28;20037;-69
2022/07/04 05:38:26;;;;;;;3.03;1.83;;;;;;;19.82;66.55;100784.59;5022233;28;20040;-70
2022/07/04 05:40:51;;;;;;;6.53;1.75;;;;;;;19.82;66.74;100787.28;5018999;28;20066;-69
2022/07/04 05:43:16;;;;;;;3.28;1.65;;;;;;;19.96;65.93;100792.94;5022288;28;20045;-70
2022/07/04 05:45:42;;;;;;;3.67;2.22;;;;;;;20.01;65.71;100798.09;5020089;28;20040;-70
2022/07/04 05:48:07;;;;;;;4.20;2.10;;;;;;;20.11;65.93;100794.13;5021257;28;20484;-69
2022/07/04 05:50:34;;;;;;;4.20;2.20;;;;;;;20.24;65.14;100791.81;5021623;28;20042;-69
2022/07/04 05:53:00;;;;;;;2.80;1.52;;;;;;;20.42;64.86;100808.91;5021979;28;20056;-70
2022/07/04 05:55:25;;;;;;;6.78;1.83;;;;;;;20.36;65.03;100793.97;5021560;28;20489;-69
2022/07/04 05:57:51;;;;;;;2.42;1.30;;;;;;;20.47;64.26;100804.22;5023804;28;20037;-69
2022/07/04 06:00:16;;;;;;;2.15;1.40;;;;;;;20.49;64.36;100813.09;5023749;28;20215;-70
2022/07/04 06:02:42;;;;;;;4.70;1.95;;;;;;;20.50;64.10;100807.63;5019797;28;20045;-70
2022/07/04 06:05:08;;;;;;;3.05;1.58;;;;;;;20.47;64.01;100818.50;5017845;28;20044;-69
2022/07/04 06:07:33;;;;;;;2.00;1.30;;;;;;;20.51;63.68;100829.97;5028224;28;20038;-69
2022/07/04 06:09:58;;;;;;;2.47;1.40;;;;;;;20.63;63.71;100833.97;5027314;28;20029;-69
2022/07/04 06:12:24;;;;;;;5.35;1.73;;;;;;;20.71;62.96;100829.13;5024956;28;20408;-69
2022/07/04 06:14:49;;;;;;;6.90;2.22;;;;;;;20.82;63.28;100829.53;5030668;28;20388;-69
2022/07/04 06:17:14;;;;;;;3.35;1.83;;;;;;;21.01;62.84;100837.63;5031304;28;20531;-70
2022/07/04 06:19:40;;;;;;;5.15;1.65;;;;;;;20.89;62.38;100828.34;5030858;28;20033;-70
2022/07/04 06:22:05;;;;;;;3.72;1.45;;;;;;;20.86;62.06;100827.59;5030235;28;20117;-70
2022/07/04 06:24:30;;;;;;;2.38;1.48;;;;;;;20.87;61.63;100832.03;5026879;28;20412;-70
2022/07/04 06:26:56;;;;;;;2.83;1.40;;;;;;;20.91;61.72;100834.50;5025867;28;20046;-69
2022/07/04 06:29:21;;;;;;;2.58;1.60;;;;;;;20.95;61.13;100835.22;5022443;28;20045;-70
2022/07/04 06:31:46;;;;;;;2.67;1.20;;;;;;;21.07;60.49;100832.00;5024637;28;20039;-69
2022/07/04 06:36:55;;;;;;;4.93;1.90;;;;;;;21.26;60.22;100845.47;5022977;28;20412;-69
2022/07/04 06:39:21;;;;;;;5.97;1.95;;;;;;;21.39;60.09;100848.50;5024531;28;20045;-70
2022/07/04 06:41:46;;;;;;;3.20;1.80;;;;;;;21.35;58.68;100853.09;5022733;28;20042;-70
2022/07/04 06:44:12;;;;;;;3.00;1.73;;;;;;;21.31;59.80;100854.19;5031852;28;20052;-69
2022/07/04 06:46:37;;;;;;;4.90;1.70;;;;;;;21.38;58.95;100846.75;5022680;28;20050;-70
2022/07/04 06:49:02;;;;;;;5.13;1.60;;;;;;;21.56;58.60;100850.38;5027444;28;20072;-70
2022/07/04 06:51:28;;;;;;;3.53;1.48;;;;;;;21.59;58.02;100848.44;5021034;28;20042;-70
2022/07/04 06:53:53;;;;;;;6.03;1.98;;;;;;;21.65;58.20;100836.53;5024348;28;20040;-70
2022/07/04 06:56:19;;;;;;;3.90;1.70;;;;;;;21.71;56.87;100835.38;5023344;28;20245;-69
2022/07/04 06:58:44;;;;;;;3.13;1.65;;;;;;;21.82;57.71;100836.63;5022644;28;20030;-69
2022/07/04 07:01:09;;;;;;;1.90;1.10;;;;;;;21.89;56.46;100829.97;5026514;28;20033;-70
2022/07/04 07:03:35;;;;;;;2.55;1.27;;;;;;;21.95;56.20;100838.69;5025548;28;20034;-70
2022/07/04 07:06:02;;;;;;;3.95;1.25;;;;;;;22.06;55.18;100841.72;5020999;28;20097;-70
2022/07/04 07:08:28;;;;;;;3.65;1.00;;;;;;;22.03;55.58;100837.38;5026923;28;20463;-70
2022/07/04 07:10:55;;;;;;;2.65;1.20;;;;;;;21.88;55.73;100836.31;5024413;28;20405;-69
2022/07/04 07:13:20;;;;;;;4.57;1.08;;;;;;;21.99;54.87;100837.59;5024675;28;20121;-70
2022/07/04 07:15:45;;;;;;;1.83;1.10;;;;;;;22.00;55.28;100836.66;5028629;28;20489;-70
2022/07/04 07:18:11;;;;;;;1.77;1.02;;;;;;;22.06;54.17;100833.66;5026395;28;20044;-70
2022/07/04 07:20:36;;;;;;;1.42;1.00;;;;;;;22.15;55.11;100835.03;5023207;28;20020;-69
2022/07/04 07:23:03;;;;;;;2.05;1.05;;;;;;;22.16;53.94;100832.25;5023598;28;20511;-69
2022/07/04 07:25:28;;;;;;;3.28;1.42;;;;;;;22.23;54.25;100822.09;5024952;28;20542;-69
2022/07/04 07:27:54;;;;;;;1.90;0.90;;;;;;;22.36;52.33;100833.13;5025223;28;20037;-70
2022/07/04 07:30:19;;;;;;;2.58;1.10;;;;;;;22.31;53.67;100820.75;5022305;28;20176;-69
2022/07/04 07:32:45;;;;;;;1.98;1.00;;;;;;;22.44;52.65;100820.16;5019091;28;20116;-70
2022/07/04 07:35:11;;;;;;;2.25;0.88;;;;;;;22.45;51.38;100838.91;5020752;28;20042;-70
2022/07/04 07:37:36;;;;;;;1.50;0.90;;;;;;;22.38;52.43;100831.22;5023621;28;20049;-70
2022/07/04 07:40:02;;;;;;;2.40;1.10;;;;;;;22.31;52.00;100831.53;5022342;28;20056;-70
2022/07/04 07:42:28;;;;;;;2.50;1.00;;;;;;;22.41;51.97;100814.94;5021445;28;20043;-70
2022/07/04 07:44:53;;;;;;;2.47;0.98;;;;;;;22.56;50.87;100819.53;5022990;28;20115;-70
2022/07/04 07:47:18;;;;;;;1.55;0.70;;;;;;;22.68;49.80;100829.63;5030479;28;20033;-69
2022/07/04 07:49:44;;;;;;;1.63;0.63;;;;;;;22.76;49.43;100835.50;5025160;28;20077;-69
2022/07/04 07:52:10;;;;;;;1.65;0.65;;;;;;;22.95;47.47;100827.34;5020789;28;20096;-70
2022/07/04 07:54:35;;;;;;;2.80;0.80;;;;;;;23.03;47.33;100823.38;5027564;28;20037;-70
2022/07/04 07:57:01;;;;;;;3.88;0.80;;;;;;;22.99;46.01;100822.69;5024618;28;20045;-70
2022/07/04 07:59:26;;;;;;;2.38;0.73;;;;;;;23.17;45.73;100816.31;5022243;28;20033;-69
2022/07/04 08:01:51;;;;;;;1.00;0.68;;;;;;;23.13;46.77;100825.53;5022875;28;20120;-70
2022/07/04 08:04:35;;;;;;;2.13;0.80;;;;;;;23.17;47.47;100831.59;5020890;28;20034;-69
2022/07/04 08:07:06;;;;;;;1.20;0.70;;;;;;;23.27;46.46;100826.59;5022923;28;20068;-70
2022/07/04 08:09:32;;;;;;;3.85;0.55;;;;;;;23.40;45.55;100830.34;5020758;28;20034;-70
2022/07/04 08:11:58;;;;;;;1.58;0.70;;;;;;;23.50;46.13;100828.91;5023483;28;20512;-70
2022/07/04 08:14:24;;;;;;;1.67;0.50;;;;;;;23.66;45.09;100838.78;5027250;28;20062;-70
2022/07/04 08:16:49;;;;;;;1.63;0.40;;;;;;;23.57;42.11;100830.28;5023997;28;20087;-70
2022/07/04 08:19:15;;;;;;;1.38;0.50;;;;;;;23.67;43.72;100814.47;5021982;28;20163;-70
2022/07/04 08:21:40;;;;;;;1.20;0.60;;;;;;;23.55;42.59;100843.00;5025999;28;20034;-70
2022/07/04 08:24:06;;;;;;;3.40;0.55;;;;;;;23.65;42.13;100815.50;5024787;28;20033;-70
2022/07/04 08:26:31;;;;;;;1.52;0.47;;;;;;;23.79;42.95;100830.00;5027510;28;20142;-69
2022/07/04 08:28:57;;;;;;;1.00;0.50;;;;;;;23.72;43.17;100833.13;5026133;28;20025;-71
2022/07/04 08:31:24;;;;;;;1.90;0.57;;;;;;;23.82;43.14;100832.50;5026649;28;20041;-70
2022/07/04 08:33:50;;;;;;;2.33;0.57;;;;;;;23.87;42.00;100829.56;5027758;28;20037;-70
2022/07/04 08:36:15;;;;;;;4.18;0.85;;;;;;;23.87;42.77;100821.47;5026453;28;20037;-71
2022/07/04 08:38:41;;;;;;;1.30;0.70;;;;;;;23.95;43.38;100823.72;5028612;28;20047;-70
2022/07/04 08:41:06;;;;;;;0.95;0.50;;;;;;;23.98;41.76;100835.19;5026374;28;20025;-70
2022/07/04 08:43:36;;;;;;;1.45;0.60;;;;;;;24.05;42.75;100836.59;5029170;28;20048;-70
2022/07/04 08:46:04;;;;;;;1.85;0.88;;;;;;;24.25;41.79;100838.13;5029147;28;20029;-70
2022/07/04 08:48:31;;;;;;;1.73;0.63;;;;;;;24.13;41.23;100832.56;5021080;28;20034;-71
2022/07/04 08:51:04;;;;;;;2.42;0.55;;;;;;;24.14;41.76;100834.31;5020812;28;20091;-70
2022/07/04 08:53:30;;;;;;;1.88;0.50;;;;;;;24.30;41.43;100818.97;5023666;28;20067;-70
2022/07/04 08:58:42;;;;;;;1.35;0.85;;;;;;;24.36;40.30;100829.38;5024079;28;20061;-71
2022/07/04 09:01:16;;;;;;;1.38;0.40;;;;;;;24.49;40.14;100841.22;5025796;28;20459;-70
2022/07/04 09:03:43;;;;;;;1.60;0.60;;;;;;;24.40;40.55;100828.25;5020158;28;20033;-70
2022/07/04 09:06:09;;;;;;;1.75;0.43;;;;;;;24.65;40.88;100834.91;5024032;28;20034;-70
2022/07/04 09:08:35;;;;;;;0.52;0.38;;;;;;;24.64;40.74;100825.97;5021929;28;20540;-70
2022/07/04 09:11:01;;;;;;;1.65;0.68;;;;;;;24.65;40.50;100824.13;5026974;28;20116;-70
2022/07/04 09:13:27;;;;;;;1.02;0.40;;;;;;;24.70;40.71;100827.41;5023484;28;20492;-70
2022/07/04 09:15:52;;;;;;;1.90;0.85;;;;;;;24.62;40.64;100835.97;5022257;28;20091;-70
2022/07/04 09:18:26;;;;;;;3.05;0.50;;;;;;;24.64;40.51;100823.25;5028481;28;20041;-71
2022/07/04 09:21:02;;;;;;;0.50;0.40;;;;;;;24.59;41.38;100832.59;5021651;28;20029;-70
2022/07/04 09:23:32;;;;;;;1.58;0.70;;;;;;;24.77;40.87;100828.78;5020174;28;20061;-70
2022/07/04 09:26:16;;;;;;;1.15;0.38;;;;;;;24.80;41.28;100820.50;5019448;28;20512;-70
2022/07/04 09:28:53;;;;;;;2.58;0.60;;;;;;;24.79;41.33;100821.47;5022480;28;20687;-70
2022/07/04 09:31:25;;;;;;;5.60;0.60;;;;;;;25.16;40.46;100818.38;5026969;28;20522;-70
2022/07/04 09:33:53;;;;;;;1.48;0.45;;;;;;;25.21;40.11;100830.63;5019304;28;20080;-70
2022/07/04 09:36:21;;;;;;;4.50;0.68;;;;;;;25.10;39.61;100820.44;5021147;28;20041;-70
2022/07/04 09:39:06;;;;;;;0.40;0.30;;;;;;;25.11;40.21;100822.19;5027297;28;20038;-71
2022/07/04 09:42:02;;;;;;;2.85;0.50;;;;;;;24.99;39.61;100820.22;5022905;28;20829;-71
2022/07/04 09:44:42;;;;;;;3.40;0.73;;;;;;;25.07;39.68;100827.84;5022586;28;20396;-70
2022/07/04 09:47:25;;;;;;;1.30;0.63;;;;;;;25.02;39.19;100822.75;5025711;28;20132;-71
2022/07/04 09:50:05;;;;;;;3.40;1.20;;;;;;;25.39;39.07;100814.19;5023755;28;20038;-71
2022/07/04 09:52:31;;;;;;;0.65;0.40;;;;;;;25.53;38.57;100819.59;5023305;28;20068;-71
2022/07/04 09:55:02;;;;;;;1.70;0.55;;;;;;;25.62;38.94;100820.81;5040869;28;20037;-71
2022/07/04 09:57:29;;;;;;;2.63;0.75;;;;;;;25.68;38.60;100813.22;5029502;28;20037;-71
2022/07/04 09:59:54;;;;;;;1.92;0.60;;;;;;;25.64;39.29;100819.75;5026651;28;20037;-70
2022/07/04 10:02:20;;;;;;;3.00;0.73;;;;;;;25.65;39.03;100815.22;5025951;28;20029;-72
2022/07/04 10:04:55;;;;;;;1.70;0.70;;;;;;;25.81;38.20;100815.97;5034952;28;20072;-70
2022/07/04 10:07:50;;;;;;;1.23;0.70;;;;;;;25.70;38.51;100804.97;5029385;28;20424;-70
2022/07/04 10:10:27;;;;;;;1.05;0.73;;;;;;;25.75;39.36;100816.34;5015193;28;20133;-70
2022/07/04 10:12:55;;;;;;;2.63;0.90;;;;;;;25.71;39.18;100822.94;5026436;28;20462;-70
2022/07/04 10:15:21;;;;;;;1.83;0.52;;;;;;;25.80;38.13;100823.19;5030642;28;20038;-71
2022/07/04 10:17:46;;;;;;;1.38;0.80;;;;;;;26.04;38.16;100800.94;5008949;28;20045;-70
2022/07/04 10:20:12;;;;;;;1.15;0.60;;;;;;;26.46;37.77;100799.03;5023206;28;20041;-71
2022/07/04 10:22:39;;;;;;;2.55;0.77;;;;;;;26.92;36.67;100793.16;5024682;28;20030;-70
2022/07/04 10:25:05;;;;;;;3.20;0.82;;;;;;;27.25;36.35;100795.34;5027770;28;20037;-70
2022/07/04 10:27:31;;;;;;;2.38;0.63;;;;;;;27.00;36.16;100807.03;5026651;28;20037;-71
2022/07/04 10:29:58;;;;;;;1.23;0.60;;;;;;;26.58;37.62;100810.88;5022223;28;20030;-71
2022/07/04 10:32:26;;;;;;;3.63;0.90;;;;;;;26.36;36.65;100801.50;5029758;28;20098;-70
2022/07/04 10:34:51;;;;;;;1.88;0.73;;;;;;;26.60;36.55;100803.53;5026633;28;20527;-71
2022/07/04 10:37:17;;;;;;;1.08;0.60;;;;;;;26.82;37.46;100797.50;5025705;28;20034;-71
2022/07/04 10:39:42;;;;;;;1.83;0.80;;;;;;;27.14;36.12;100794.34;5027968;28;20044;-71
2022/07/04 10:42:08;;;;;;;1.23;0.47;;;;;;;26.90;36.26;100795.09;5028875;28;20033;-71
2022/07/04 10:44:41;;;;;;;2.42;0.77;;;;;;;26.91;36.18;100788.72;5024107;28;20056;-70
2022/07/04 10:47:23;;;;;;;1.70;0.80;;;;;;;27.09;36.43;100790.13;5027149;28;20038;-71
2022/07/04 10:49:51;;;;;;;2.15;0.75;;;;;;;27.44;35.32;100781.31;5031150;28;20042;-70
2022/07/04 10:52:16;;;;;;;2.15;0.80;;;;;;;27.51;35.14;100782.63;5024565;28;20057;-71
2022/07/04 10:54:43;;;;;;;2.10;0.55;;;;;;;27.45;35.29;100782.19;5021399;28;20215;-70
2022/07/04 10:57:11;;;;;;;1.80;0.60;;;;;;;27.25;35.37;100778.22;5023263;28;20038;-70
2022/07/04 10:59:38;;;;;;;0.70;0.50;;;;;;;27.20;35.31;100780.41;5023050;28;20037;-71
2022/07/04 11:02:03;;;;;;;0.98;0.68;;;;;;;27.28;34.88;100783.44;5022210;28;20032;-71
2022/07/04 11:05:04;;;;;;;2.03;0.80;;;;;;;27.36;34.57;100772.03;5025749;28;20637;-71
2022/07/04 11:07:30;;;;;;;1.85;0.65;;;;;;;27.65;34.39;100768.03;5022918;28;20544;-71
2022/07/04 11:10:16;;;;;;;1.30;0.50;;;;;;;27.78;34.43;100773.41;5023377;28;20045;-71
2022/07/04 11:12:53;;;;;;;1.05;0.50;;;;;;;27.68;34.57;100773.22;5023164;28;20413;-71
2022/07/04 11:15:40;;;;;;;1.77;0.55;;;;;;;27.97;34.06;100767.50;5021725;28;20041;-71
2022/07/04 11:18:11;;;;;;;2.30;1.30;;;;;;;28.27;34.04;100769.75;5010311;28;20038;-71
2022/07/04 11:20:41;;;;;;;3.15;0.70;;;;;;;28.02;32.92;100764.44;5028950;28;20036;-71
2022/07/04 11:23:14;;;;;;;1.20;0.50;;;;;;;27.47;34.63;100775.69;5026806;28;20033;-71
2022/07/04 11:25:42;;;;;;;2.88;0.70;;;;;;;27.28;34.20;100759.91;5030061;28;20044;-71
2022/07/04 11:28:25;;;;;;;3.08;0.80;;;;;;;27.79;34.17;100767.00;5023972;28;20484;-71
2022/07/04 11:30:55;;;;;;;1.17;0.35;;;;;;;28.03;33.97;100756.19;5029581;28;20117;-71
2022/07/04 11:33:27;;;;;;;1.33;0.60;;;;;;;28.32;33.38;100759.41;5023584;28;20040;-71
2022/07/04 11:36:28;;;;;;;2.65;0.70;;;;;;;28.76;31.96;100774.09;5024203;28;20069;-71
2022/07/04 11:38:57;;;;;;;1.20;0.50;;;;;;;28.79;32.96;100767.53;4928887;29;20091;-71